createdAt,value
2019-02-14T00:00:54.138Z,0.26
2019-02-14T00:03:21.234Z,0.24
2019-02-14T00:05:48.432Z,0.19
2019-02-14T00:08:15.637Z,0.15
2019-02-14T00:10:42.804Z,0.13
2019-02-14T00:13:10.010Z,0.12
2019-02-14T00:15:37.482Z,0.14
2019-02-14T00:18:04.627Z,0.13
2019-02-14T00:20:32.069Z,0.18
2019-02-14T00:22:59.220Z,0.22
2019-02-14T00:25:26.376Z,0.17
2019-02-14T00:27:53.992Z,0.14
2019-02-14T00:30:21.459Z,0.17
2019-02-14T00:32:48.508Z,0.17
2019-02-14T00:35:15.917Z,0.13
2019-02-14T00:37:43.071Z,0.04
2019-02-14T00:40:10.149Z,0.06
2019-02-14T00:42:37.360Z,0.09
2019-02-14T00:45:04.818Z,0.05
2019-02-14T00:47:31.863Z,0.03
2019-02-14T00:49:59.065Z,0.02
2019-02-14T00:52:26.238Z,0.00
2019-02-14T00:54:53.474Z,-0.04
2019-02-14T00:57:20.689Z,-0.07
2019-02-14T00:59:47.845Z,-0.08
2019-02-14T01:02:15.051Z,-0.07
2019-02-14T01:04:42.224Z,-0.10
2019-02-14T01:07:09.409Z,-0.07
2019-02-14T01:09:36.837Z,-0.03
2019-02-14T01:12:04.342Z,-0.07
2019-02-14T01:14:31.797Z,-0.12
2019-02-14T01:16:58.884Z,-0.14
2019-02-14T01:19:26.091Z,-0.07
2019-02-14T01:21:53.216Z,-0.01
2019-02-14T01:24:20.388Z,-0.05
2019-02-14T01:26:47.910Z,-0.11
2019-02-14T01:29:15.348Z,-0.16
2019-02-14T01:31:42.553Z,-0.16
2019-02-14T01:34:10.036Z,-0.11
2019-02-14T01:36:37.199Z,-0.14
2019-02-14T01:39:05.259Z,-0.19
2019-02-14T01:41:32.432Z,-0.19
2019-02-14T01:43:59.922Z,-0.20
2019-02-14T01:46:27.081Z,-0.22
2019-02-14T01:48:54.268Z,-0.26
2019-02-14T01:51:22.866Z,-0.28
2019-02-14T01:53:50.077Z,-0.28
2019-02-14T01:56:17.304Z,-0.31
2019-02-14T01:58:44.464Z,-0.26
2019-02-14T02:01:11.848Z,-0.26
2019-02-14T02:03:39.034Z,-0.30
2019-02-14T02:06:06.150Z,-0.28
2019-02-14T02:08:33.514Z,-0.25
2019-02-14T02:11:00.825Z,-0.25
2019-02-14T02:13:28.252Z,-0.23
2019-02-14T02:15:55.443Z,-0.21
2019-02-14T02:18:22.946Z,-0.25
2019-02-14T02:20:50.012Z,-0.28
2019-02-14T02:23:17.217Z,-0.26
2019-02-14T02:25:44.555Z,-0.26
2019-02-14T02:28:11.737Z,-0.29
2019-02-14T02:30:38.875Z,-0.29
2019-02-14T02:33:06.067Z,-0.29
2019-02-14T02:35:33.398Z,-0.30
2019-02-14T02:38:00.908Z,-0.30
2019-02-14T02:40:28.085Z,-0.34
2019-02-14T02:42:55.304Z,-0.37
2019-02-14T02:45:22.374Z,-0.38
2019-02-14T02:47:49.441Z,-0.42
2019-02-14T02:50:16.498Z,-0.40
2019-02-14T02:52:44.147Z,-0.34
2019-02-14T02:55:11.290Z,-0.29
2019-02-14T02:57:38.467Z,-0.33
2019-02-14T03:00:09.587Z,-0.36
2019-02-14T03:02:36.763Z,-0.38
2019-02-14T03:05:04.589Z,-0.35
2019-02-14T03:07:31.898Z,-0.37
2019-02-14T03:09:59.070Z,-0.37
2019-02-14T03:12:26.524Z,-0.32
2019-02-14T03:14:53.697Z,-0.29
2019-02-14T03:17:20.880Z,-0.31
2019-02-14T03:19:48.022Z,-0.32
2019-02-14T03:22:15.196Z,-0.38
2019-02-14T03:24:42.428Z,-0.41
2019-02-14T03:27:09.504Z,-0.45
2019-02-14T03:29:36.661Z,-0.50
2019-02-14T03:32:04.086Z,-0.51
2019-02-14T03:34:31.216Z,-0.45
2019-02-14T03:36:58.640Z,-0.27
2019-02-14T03:39:25.846Z,-0.19
2019-02-14T03:41:53.200Z,-0.09
2019-02-14T03:44:20.620Z,0.06
2019-02-14T03:46:47.845Z,0.23
2019-02-14T03:49:14.995Z,0.30
2019-02-14T03:51:42.144Z,0.33
2019-02-14T03:54:09.364Z,0.27
2019-02-14T03:56:36.852Z,0.23
2019-02-14T03:59:04.071Z,0.23
2019-02-14T04:01:31.338Z,0.24
2019-02-14T04:03:58.510Z,0.25
2019-02-14T04:06:27.380Z,0.35
2019-02-14T04:08:54.658Z,0.42
2019-02-14T04:11:21.786Z,0.40
2019-02-14T04:13:48.876Z,0.35
2019-02-14T04:16:16.037Z,0.23
2019-02-14T04:18:43.212Z,0.11
2019-02-14T04:21:10.349Z,0.03
2019-02-14T04:23:37.551Z,-0.03
2019-02-14T04:26:04.770Z,-0.12
2019-02-14T04:28:32.043Z,-0.13
2019-02-14T04:30:59.241Z,-0.15
2019-02-14T04:33:26.431Z,-0.20
2019-02-14T04:35:53.588Z,-0.20
2019-02-14T04:38:20.762Z,-0.26
2019-02-14T04:40:47.943Z,-0.37
2019-02-14T04:43:15.114Z,-0.44
2019-02-14T04:45:42.211Z,-0.42
2019-02-14T04:48:09.258Z,-0.48
2019-02-14T04:50:36.304Z,-0.55
2019-02-14T04:53:03.649Z,-0.63
2019-02-14T04:55:30.941Z,-0.69
2019-02-14T04:57:58.447Z,-0.66
2019-02-14T05:00:25.684Z,-0.70
2019-02-14T05:02:52.871Z,-0.70
2019-02-14T05:05:20.050Z,-0.75
2019-02-14T05:07:47.230Z,-0.73
2019-02-14T05:10:14.385Z,-0.72
2019-02-14T05:12:41.560Z,-0.74
2019-02-14T05:15:08.801Z,-0.80
2019-02-14T05:17:35.837Z,-0.88
2019-02-14T05:20:03.385Z,-0.92
2019-02-14T05:22:30.890Z,-0.95
2019-02-14T05:24:58.340Z,-0.98
2019-02-14T05:27:25.535Z,-1.04
2019-02-14T05:29:52.729Z,-1.09
2019-02-14T05:32:19.912Z,-1.11
2019-02-14T05:34:47.058Z,-1.14
2019-02-14T05:37:14.150Z,-1.17
2019-02-14T05:39:41.334Z,-1.16
2019-02-14T05:42:08.491Z,-1.19
2019-02-14T05:44:35.739Z,-1.16
2019-02-14T05:47:02.795Z,-1.09
2019-02-14T05:49:29.983Z,-1.07
2019-02-14T05:51:57.199Z,-0.99
2019-02-14T05:54:24.405Z,-0.97
2019-02-14T05:56:51.553Z,-0.97
2019-02-14T05:59:18.798Z,-0.97
2019-02-14T06:01:46.041Z,-0.99
2019-02-14T06:04:13.233Z,-1.07
2019-02-14T06:06:40.453Z,-1.13
2019-02-14T06:09:07.647Z,-1.19
2019-02-14T06:11:34.832Z,-1.22
2019-02-14T06:14:01.961Z,-1.18
2019-02-14T06:16:29.204Z,-1.18
2019-02-14T06:18:56.639Z,-1.22
2019-02-14T06:21:23.819Z,-1.20
2019-02-14T06:23:51.016Z,-1.17
2019-02-14T06:26:18.201Z,-1.16
2019-02-14T06:28:45.463Z,-1.15
2019-02-14T06:31:12.604Z,-1.09
2019-02-14T06:33:39.764Z,-1.02
2019-02-14T06:36:06.852Z,-1.03
2019-02-14T06:38:34.059Z,-1.04
2019-02-14T06:41:01.220Z,-1.05
2019-02-14T06:43:28.444Z,-0.98
2019-02-14T06:45:55.688Z,-0.87
2019-02-14T06:48:22.899Z,-0.75
2019-02-14T06:50:50.104Z,-0.48
2019-02-14T06:53:17.368Z,-0.31
2019-02-14T06:55:44.747Z,-0.08
2019-02-14T06:58:12.881Z,0.07
2019-02-14T07:00:40.260Z,0.20
2019-02-14T07:03:07.504Z,0.28
2019-02-14T07:05:34.632Z,0.42
2019-02-14T07:08:02.072Z,0.58
2019-02-14T07:10:29.555Z,0.79
2019-02-14T07:12:56.756Z,0.97
2019-02-14T07:15:24.220Z,1.16
2019-02-14T07:17:51.288Z,1.36
2019-02-14T07:20:18.554Z,1.53
2019-02-14T07:22:45.793Z,1.75
2019-02-14T07:25:12.995Z,1.97
2019-02-14T07:27:40.229Z,2.21
2019-02-14T07:30:10.896Z,2.43
2019-02-14T07:32:38.081Z,2.65
2019-02-14T07:35:05.936Z,2.79
2019-02-14T07:37:32.978Z,2.89
2019-02-14T07:40:00.332Z,2.95
2019-02-14T07:42:27.520Z,3.18
2019-02-14T07:44:54.745Z,3.34
2019-02-14T07:47:21.899Z,3.56
2019-02-14T07:49:49.094Z,3.76
2019-02-14T07:52:24.854Z,4.02
2019-02-14T07:54:45.800Z,4.25
2019-02-14T07:57:13.010Z,4.75
2019-02-14T07:59:40.273Z,5.42
2019-02-14T08:02:07.535Z,6.36
2019-02-14T08:04:34.750Z,7.11
2019-02-14T08:07:02.477Z,7.04
2019-02-14T08:09:29.718Z,6.76
2019-02-14T08:11:56.907Z,6.70
2019-02-14T08:14:24.139Z,6.87
2019-02-14T08:16:51.379Z,7.28
2019-02-14T08:19:18.910Z,7.79
2019-02-14T08:21:46.147Z,8.69
2019-02-14T08:24:13.251Z,9.25
2019-02-14T08:26:40.517Z,9.79
2019-02-14T08:29:07.744Z,9.98
2019-02-14T08:31:36.299Z,9.88
2019-02-14T08:34:03.499Z,9.61
2019-02-14T08:36:30.813Z,9.18
2019-02-14T08:38:57.992Z,8.81
2019-02-14T08:41:25.256Z,8.58
2019-02-14T08:43:52.793Z,8.35
2019-02-14T08:46:20.062Z,8.08
2019-02-14T08:48:47.260Z,7.87
2019-02-14T08:51:14.543Z,7.61
2019-02-14T08:53:41.801Z,7.51
2019-02-14T08:56:09.333Z,7.84
2019-02-14T08:58:36.509Z,9.32
2019-02-14T09:01:03.670Z,11.03
2019-02-14T09:03:30.929Z,13.25
2019-02-14T09:05:58.047Z,15.42
2019-02-14T09:08:25.418Z,17.10
2019-02-14T09:10:52.637Z,18.34
2019-02-14T09:13:19.837Z,18.69
2019-02-14T09:15:47.022Z,19.05
2019-02-14T09:18:14.312Z,18.66
2019-02-14T09:20:41.383Z,18.37
2019-02-14T09:23:08.534Z,17.48
2019-02-14T09:25:35.790Z,16.18
2019-02-14T09:28:03.050Z,14.73
2019-02-14T09:30:30.234Z,13.40
2019-02-14T09:32:58.147Z,12.32
2019-02-14T09:35:27.149Z,11.50
2019-02-14T09:38:02.738Z,10.74
2019-02-14T09:40:23.523Z,10.17
2019-02-14T09:42:50.571Z,9.75
2019-02-14T09:45:17.824Z,9.45
2019-02-14T09:47:44.924Z,9.45
2019-02-14T09:50:12.124Z,9.34
2019-02-14T09:52:39.644Z,9.10
2019-02-14T09:55:07.334Z,8.82
2019-02-14T09:57:34.511Z,8.73
2019-02-14T10:00:01.704Z,8.77
2019-02-14T10:02:30.788Z,8.96
2019-02-14T10:04:57.997Z,9.02
2019-02-14T10:07:25.218Z,9.14
2019-02-14T10:09:52.425Z,9.01
2019-02-14T10:12:19.601Z,8.83
2019-02-14T10:14:46.814Z,8.68
2019-02-14T10:17:22.011Z,8.77
2019-02-14T10:19:43.109Z,8.85
2019-02-14T10:22:10.331Z,9.11
2019-02-14T10:24:37.540Z,9.21
2019-02-14T10:27:04.714Z,9.18
2019-02-14T10:29:32.193Z,9.12
2019-02-14T10:31:59.369Z,9.17
2019-02-14T10:34:26.520Z,9.24
2019-02-14T10:36:53.706Z,9.32
2019-02-14T10:39:20.895Z,9.35
2019-02-14T10:41:48.059Z,9.48
2019-02-14T10:44:15.265Z,9.44
2019-02-14T10:46:42.472Z,9.51
2019-02-14T10:49:09.963Z,9.54
2019-02-14T10:51:37.201Z,9.52
2019-02-14T10:54:04.409Z,9.48
2019-02-14T10:56:31.583Z,9.40
2019-02-14T10:58:59.212Z,9.36
2019-02-14T11:01:26.510Z,9.33
2019-02-14T11:03:53.683Z,9.33
2019-02-14T11:06:20.849Z,9.36
2019-02-14T11:08:48.535Z,9.22
2019-02-14T11:11:15.832Z,9.11
2019-02-14T11:13:43.342Z,9.10
2019-02-14T11:16:10.561Z,9.16
2019-02-14T11:18:43.976Z,9.24
2019-02-14T11:21:06.825Z,9.33
2019-02-14T11:23:34.065Z,9.41
2019-02-14T11:26:01.287Z,9.58
2019-02-14T11:28:28.514Z,9.90
2019-02-14T11:30:55.753Z,10.18
2019-02-14T11:33:22.970Z,10.35
2019-02-14T11:35:50.096Z,10.37
2019-02-14T11:38:17.279Z,10.51
2019-02-14T11:40:44.505Z,10.72
2019-02-14T11:43:11.849Z,10.61
2019-02-14T11:45:39.082Z,10.68
2019-02-14T11:48:06.184Z,10.81
2019-02-14T11:50:33.302Z,11.04
2019-02-14T11:53:02.765Z,11.12
2019-02-14T11:55:29.975Z,11.31
2019-02-14T11:57:57.173Z,11.59
2019-02-14T12:00:24.844Z,11.71
2019-02-14T12:02:55.403Z,11.85
2019-02-14T12:05:21.479Z,12.02
2019-02-14T12:07:48.679Z,12.35
2019-02-14T12:10:16.180Z,12.50
2019-02-14T12:12:43.352Z,12.60
2019-02-14T12:15:10.618Z,12.74
2019-02-14T12:17:37.690Z,12.89
2019-02-14T12:20:05.482Z,12.93
2019-02-14T12:22:32.699Z,12.89
2019-02-14T12:25:00.330Z,12.78
2019-02-14T12:27:27.526Z,12.63
2019-02-14T12:29:54.687Z,12.46
2019-02-14T12:32:21.862Z,12.40
2019-02-14T12:34:48.974Z,12.40
2019-02-14T12:37:16.243Z,12.45
2019-02-14T12:39:43.790Z,12.58
2019-02-14T12:42:11.002Z,12.67
2019-02-14T12:44:38.353Z,12.76
2019-02-14T12:47:05.468Z,12.80
2019-02-14T12:49:32.622Z,12.86
2019-02-14T12:52:00.161Z,12.88
2019-02-14T12:54:27.361Z,12.82
2019-02-14T12:56:54.592Z,12.86
2019-02-14T12:59:21.870Z,12.87
2019-02-14T13:01:49.082Z,12.75
2019-02-14T13:04:16.271Z,12.69
2019-02-14T13:06:43.557Z,12.54
2019-02-14T13:09:19.840Z,12.41
2019-02-14T13:11:39.909Z,12.29
2019-02-14T13:14:07.113Z,12.20
2019-02-14T13:16:34.211Z,12.09
2019-02-14T13:19:01.743Z,11.92
2019-02-14T13:21:29.160Z,11.68
2019-02-14T13:23:56.328Z,11.44
2019-02-14T13:26:23.591Z,11.23
2019-02-14T13:28:50.785Z,11.08
2019-02-14T13:31:17.983Z,11.02
2019-02-14T13:33:45.242Z,10.95
2019-02-14T13:36:12.503Z,10.96
2019-02-14T13:38:39.716Z,10.99
2019-02-14T13:41:06.899Z,10.96
2019-02-14T13:43:34.165Z,10.86
2019-02-14T13:46:01.353Z,10.68
2019-02-14T13:48:28.780Z,10.48
2019-02-14T13:50:55.874Z,10.34
2019-02-14T13:53:23.099Z,10.22
2019-02-14T13:55:50.257Z,10.10
2019-02-14T13:58:17.404Z,9.98
2019-02-14T14:00:44.596Z,9.89
2019-02-14T14:03:11.653Z,9.79
2019-02-14T14:05:38.750Z,9.72
2019-02-14T14:08:05.946Z,9.68
2019-02-14T14:10:33.162Z,9.67
2019-02-14T14:13:00.396Z,9.63
2019-02-14T14:15:27.559Z,9.60
2019-02-14T14:17:54.914Z,9.65
2019-02-14T14:20:22.114Z,9.67
2019-02-14T14:22:49.592Z,9.67
2019-02-14T14:25:16.809Z,9.63
2019-02-14T14:27:47.045Z,9.57
2019-02-14T14:30:14.240Z,9.50
2019-02-14T14:32:41.512Z,9.43
2019-02-14T14:35:10.690Z,9.38
2019-02-14T14:37:38.137Z,9.36
2019-02-14T14:40:06.311Z,9.43
2019-02-14T14:42:55.935Z,9.43
2019-02-14T14:45:44.843Z,9.46
2019-02-14T14:48:20.644Z,9.35
2019-02-14T14:50:47.739Z,9.32
2019-02-14T14:53:14.961Z,9.32
2019-02-14T14:55:42.140Z,9.31
2019-02-14T14:58:11.526Z,9.28
2019-02-14T15:00:38.757Z,9.24
2019-02-14T15:03:05.980Z,9.20
2019-02-14T15:05:33.375Z,9.22
2019-02-14T15:08:00.570Z,9.34
2019-02-14T15:10:27.919Z,9.45
2019-02-14T15:12:55.406Z,9.53
2019-02-14T15:15:22.600Z,9.65
2019-02-14T15:17:49.712Z,9.78
2019-02-14T15:20:16.897Z,9.87
2019-02-14T15:22:44.094Z,9.90
2019-02-14T15:25:11.357Z,9.88
2019-02-14T15:27:38.518Z,9.84
2019-02-14T15:30:05.697Z,9.79
2019-02-14T15:32:34.758Z,9.76
2019-02-14T15:35:02.553Z,9.83
2019-02-14T15:37:29.847Z,9.86
2019-02-14T15:40:08.290Z,9.81
2019-02-14T15:42:26.366Z,9.82
2019-02-14T15:44:53.626Z,9.79
2019-02-14T15:47:20.884Z,9.77
2019-02-14T15:49:49.361Z,9.74
2019-02-14T15:52:16.592Z,9.71
2019-02-14T15:54:43.808Z,9.66
2019-02-14T15:57:10.972Z,9.54
2019-02-14T15:59:40.489Z,9.39
2019-02-14T16:02:08.448Z,9.23
2019-02-14T16:04:35.812Z,9.18
2019-02-14T16:07:03.042Z,9.13
2019-02-14T16:09:30.307Z,9.16
2019-02-14T16:11:57.991Z,9.27
2019-02-14T16:14:25.215Z,9.32
2019-02-14T16:16:52.527Z,9.33
2019-02-14T16:19:19.590Z,9.44
2019-02-14T16:21:46.794Z,9.50
2019-02-14T16:24:14.730Z,9.57
2019-02-14T16:26:43.022Z,9.50
2019-02-14T16:29:10.454Z,9.39
2019-02-14T16:31:38.012Z,9.28
2019-02-14T16:34:05.219Z,9.13
2019-02-14T16:36:32.722Z,9.04
2019-02-14T16:39:01.365Z,8.97
2019-02-14T16:41:28.980Z,8.80
2019-02-14T16:43:56.169Z,8.75
2019-02-14T16:46:23.377Z,8.73
2019-02-14T16:48:50.623Z,8.62
2019-02-14T16:51:17.786Z,8.43
2019-02-14T16:53:45.036Z,8.30
2019-02-14T16:56:12.256Z,8.05
2019-02-14T16:58:39.744Z,8.07
2019-02-14T17:01:06.848Z,8.16
2019-02-14T17:03:34.345Z,8.18
2019-02-14T17:06:01.404Z,8.17
2019-02-14T17:08:28.919Z,7.95
2019-02-14T17:10:56.081Z,7.71
2019-02-14T17:13:23.624Z,7.48
2019-02-14T17:15:50.833Z,7.25
2019-02-14T17:18:18.023Z,7.12
2019-02-14T17:20:45.099Z,6.90
2019-02-14T17:23:12.371Z,6.68
2019-02-14T17:25:39.529Z,6.49
2019-02-14T17:28:06.741Z,6.31
2019-02-14T17:30:33.946Z,6.26
2019-02-14T17:33:01.021Z,6.13
2019-02-14T17:35:28.242Z,5.98
2019-02-14T17:37:55.491Z,5.86
2019-02-14T17:40:22.728Z,5.81
2019-02-14T17:42:50.133Z,5.75
2019-02-14T17:45:17.392Z,5.74
2019-02-14T17:47:44.637Z,5.70
2019-02-14T17:50:11.872Z,5.64
2019-02-14T17:52:39.386Z,5.62
2019-02-14T17:55:06.774Z,5.60
2019-02-14T17:57:33.981Z,5.57
2019-02-14T18:00:01.245Z,5.62
2019-02-14T18:02:28.774Z,5.66
2019-02-14T18:04:55.971Z,5.70
2019-02-14T18:07:23.226Z,5.72
2019-02-14T18:09:50.381Z,5.72
2019-02-14T18:12:17.814Z,5.71
2019-02-14T18:14:45.082Z,5.77
2019-02-14T18:17:12.133Z,5.72
2019-02-14T18:19:39.404Z,5.69
2019-02-14T18:22:07.004Z,5.62
2019-02-14T18:24:34.167Z,5.54
2019-02-14T18:27:01.364Z,5.51
2019-02-14T18:29:28.518Z,5.50
2019-02-14T18:31:56.413Z,5.45
2019-02-14T18:34:23.637Z,5.41
2019-02-14T18:36:51.182Z,5.34
2019-02-14T18:39:18.389Z,5.25
2019-02-14T18:41:45.588Z,5.14
2019-02-14T18:44:12.826Z,5.04
2019-02-14T18:46:39.989Z,5.00
2019-02-14T18:49:07.270Z,5.00
2019-02-14T18:51:34.474Z,4.99
2019-02-14T18:54:01.682Z,4.98
2019-02-14T18:56:29.021Z,4.99
2019-02-14T18:58:56.272Z,4.95
2019-02-14T19:01:23.740Z,4.93
2019-02-14T19:03:50.895Z,4.89
2019-02-14T19:06:18.102Z,4.93
2019-02-14T19:08:45.340Z,4.89
2019-02-14T19:11:15.127Z,4.86
2019-02-14T19:13:41.601Z,4.80
2019-02-14T19:16:08.851Z,4.77
2019-02-14T19:18:36.064Z,4.73
2019-02-14T19:21:03.182Z,4.70
2019-02-14T19:23:30.947Z,4.64
2019-02-14T19:25:58.156Z,4.61
2019-02-14T19:28:25.392Z,4.58
2019-02-14T19:30:52.628Z,4.52
2019-02-14T19:33:19.908Z,4.43
2019-02-14T19:35:46.995Z,4.32
2019-02-14T19:38:14.749Z,4.28
2019-02-14T19:40:42.013Z,4.24
2019-02-14T19:43:09.232Z,4.16
2019-02-14T19:45:36.983Z,4.09
2019-02-14T19:48:04.112Z,4.07
2019-02-14T19:50:31.288Z,4.06
2019-02-14T19:52:58.409Z,4.03
2019-02-14T19:55:25.581Z,4.01
2019-02-14T19:57:52.830Z,3.98
2019-02-14T20:00:20.034Z,3.92
2019-02-14T20:02:47.076Z,3.86
2019-02-14T20:05:14.309Z,3.79
2019-02-14T20:07:41.471Z,3.79
2019-02-14T20:10:09.575Z,3.76
2019-02-14T20:12:37.422Z,3.74
2019-02-14T20:15:06.468Z,3.71
2019-02-14T20:17:33.692Z,3.66
2019-02-14T20:20:01.285Z,3.61
2019-02-14T20:22:28.557Z,3.58
2019-02-14T20:24:55.878Z,3.57
2019-02-14T20:27:23.165Z,3.60
2019-02-14T20:29:50.272Z,3.56
2019-02-14T20:32:17.926Z,3.54
2019-02-14T20:34:45.000Z,3.55
2019-02-14T20:37:12.201Z,3.52
2019-02-14T20:39:39.435Z,3.59
2019-02-14T20:42:06.906Z,3.74
2019-02-14T20:44:34.175Z,3.93
2019-02-14T20:47:01.530Z,3.95
2019-02-14T20:49:28.874Z,3.83
2019-02-14T20:51:56.197Z,3.69
2019-02-14T20:54:23.510Z,3.64
2019-02-14T20:56:50.792Z,3.63
2019-02-14T20:59:17.998Z,3.59
2019-02-14T21:01:45.318Z,3.72
2019-02-14T21:04:12.653Z,4.05
2019-02-14T21:06:39.909Z,4.19
2019-02-14T21:09:07.218Z,4.34
2019-02-14T21:11:34.327Z,4.40
2019-02-14T21:14:01.505Z,4.37
2019-02-14T21:16:28.903Z,4.33
2019-02-14T21:18:56.130Z,4.32
2019-02-14T21:21:23.717Z,4.33
2019-02-14T21:23:50.933Z,4.33
2019-02-14T21:26:18.647Z,4.33
2019-02-14T21:28:45.851Z,4.30
2019-02-14T21:31:13.393Z,4.23
2019-02-14T21:33:40.629Z,4.29
2019-02-14T21:36:07.770Z,4.23
2019-02-14T21:38:34.980Z,4.14
2019-02-14T21:41:02.256Z,4.23
2019-02-14T21:43:29.493Z,4.13
2019-02-14T21:45:56.981Z,4.05
2019-02-14T21:48:24.223Z,3.95
2019-02-14T21:50:51.303Z,3.85
2019-02-14T21:53:18.875Z,3.75
2019-02-14T21:55:46.098Z,3.67
2019-02-14T21:58:13.235Z,3.58
2019-02-14T22:00:40.720Z,3.45
2019-02-14T22:03:08.258Z,3.36
2019-02-14T22:05:35.719Z,3.32
2019-02-14T22:08:03.231Z,3.28
2019-02-14T22:10:30.445Z,3.22
2019-02-14T22:12:57.884Z,3.13
2019-02-14T22:15:25.218Z,3.11
2019-02-14T22:17:52.841Z,3.06
2019-02-14T22:20:20.339Z,2.99
2019-02-14T22:22:47.897Z,2.90
2019-02-14T22:25:15.440Z,2.83
2019-02-14T22:27:42.608Z,2.77
2019-02-14T22:30:14.739Z,2.73
2019-02-14T22:32:42.243Z,2.68
2019-02-14T22:35:09.485Z,2.67
2019-02-14T22:37:36.690Z,2.65
2019-02-14T22:40:03.980Z,2.66
2019-02-14T22:42:31.448Z,2.64
2019-02-14T22:44:58.533Z,2.63
2019-02-14T22:47:25.833Z,2.58
2019-02-14T22:49:52.988Z,2.52
2019-02-14T22:52:20.274Z,2.46
2019-02-14T22:54:47.479Z,2.43
2019-02-14T22:57:14.698Z,2.39
2019-02-14T22:59:41.861Z,2.34
2019-02-14T23:02:09.284Z,2.28
2019-02-14T23:04:36.458Z,2.26
2019-02-14T23:07:03.662Z,2.22
2019-02-14T23:09:30.920Z,2.18
2019-02-14T23:11:58.142Z,2.13
2019-02-14T23:14:25.327Z,2.07
2019-02-14T23:16:52.781Z,1.98
2019-02-14T23:19:19.998Z,1.92
2019-02-14T23:21:47.120Z,1.91
2019-02-14T23:24:14.646Z,1.94
2019-02-14T23:26:41.697Z,1.92
2019-02-14T23:29:08.944Z,1.98
2019-02-14T23:31:36.144Z,2.12
2019-02-14T23:34:03.303Z,2.13
2019-02-14T23:36:30.486Z,2.12
2019-02-14T23:38:57.669Z,2.08
2019-02-14T23:41:24.879Z,2.02
2019-02-14T23:43:52.042Z,2.01
2019-02-14T23:46:19.251Z,2.02
2019-02-14T23:48:46.415Z,2.01
2019-02-14T23:51:13.593Z,2.00
2019-02-14T23:53:40.765Z,2.01
2019-02-14T23:56:07.965Z,2.02
2019-02-14T23:58:35.094Z,2.01
